sensor_id;sensor_type;location;lat;lon;timestamp;temperature;humidity
45137;DHT22;30894;51.740;19.498;2022-10-15T00:01:08;9.80;95.10
45137;DHT22;30894;51.740;19.498;2022-10-15T00:03:37;9.90;94.90
45137;DHT22;30894;51.740;19.498;2022-10-15T00:06:11;10.00;94.80
45137;DHT22;30894;51.740;19.498;2022-10-15T00:08:38;10.00;94.60
45137;DHT22;30894;51.740;19.498;2022-10-15T00:11:14;10.10;94.40
45137;DHT22;30894;51.740;19.498;2022-10-15T00:13:42;10.20;94.20
45137;DHT22;30894;51.740;19.498;2022-10-15T00:16:12;10.30;94.00
45137;DHT22;30894;51.740;19.498;2022-10-15T00:18:40;10.30;93.70
45137;DHT22;30894;51.740;19.498;2022-10-15T00:21:09;10.40;93.60
45137;DHT22;30894;51.740;19.498;2022-10-15T00:23:36;10.40;93.40
45137;DHT22;30894;51.740;19.498;2022-10-15T00:28:34;10.50;93.30
45137;DHT22;30894;51.740;19.498;2022-10-15T00:31:14;10.60;93.20
45137;DHT22;30894;51.740;19.498;2022-10-15T00:33:41;10.60;93.30
45137;DHT22;30894;51.740;19.498;2022-10-15T00:36:12;10.60;93.20
45137;DHT22;30894;51.740;19.498;2022-10-15T00:38:40;10.60;93.20
45137;DHT22;30894;51.740;19.498;2022-10-15T00:41:11;10.70;93.20
45137;DHT22;30894;51.740;19.498;2022-10-15T00:43:56;10.70;93.20
45137;DHT22;30894;51.740;19.498;2022-10-15T00:49:23;10.80;93.30
45137;DHT22;30894;51.740;19.498;2022-10-15T00:51:55;10.80;93.30
45137;DHT22;30894;51.740;19.498;2022-10-15T00:54:24;10.80;93.40
45137;DHT22;30894;51.740;19.498;2022-10-15T00:56:53;10.90;93.60
45137;DHT22;30894;51.740;19.498;2022-10-15T00:59:22;10.90;93.70
45137;DHT22;30894;51.740;19.498;2022-10-15T01:01:49;10.90;93.70
45137;DHT22;30894;51.740;19.498;2022-10-15T01:04:16;10.90;93.70
45137;DHT22;30894;51.740;19.498;2022-10-15T01:06:44;10.90;93.80
45137;DHT22;30894;51.740;19.498;2022-10-15T01:09:11;10.90;93.80
45137;DHT22;30894;51.740;19.498;2022-10-15T01:14:37;10.90;93.70
45137;DHT22;30894;51.740;19.498;2022-10-15T01:26:46;11.00;93.70
45137;DHT22;30894;51.740;19.498;2022-10-15T01:32:24;10.90;93.80
45137;DHT22;30894;51.740;19.498;2022-10-15T01:40:46;10.90;93.70
45137;DHT22;30894;51.740;19.498;2022-10-15T01:43:25;10.90;93.70
45137;DHT22;30894;51.740;19.498;2022-10-15T01:45:59;10.90;93.70
45137;DHT22;30894;51.740;19.498;2022-10-15T01:48:28;10.90;93.70
45137;DHT22;30894;51.740;19.498;2022-10-15T01:50:59;10.90;93.60
45137;DHT22;30894;51.740;19.498;2022-10-15T01:53:28;10.90;93.50
45137;DHT22;30894;51.740;19.498;2022-10-15T01:55:58;10.90;93.50
45137;DHT22;30894;51.740;19.498;2022-10-15T01:58:26;11.00;93.50
45137;DHT22;30894;51.740;19.498;2022-10-15T02:00:56;10.90;93.50
45137;DHT22;30894;51.740;19.498;2022-10-15T02:03:23;11.00;93.60
45137;DHT22;30894;51.740;19.498;2022-10-15T02:05:58;11.00;93.60
45137;DHT22;30894;51.740;19.498;2022-10-15T02:08:39;11.00;93.60
45137;DHT22;30894;51.740;19.498;2022-10-15T02:11:17;11.00;93.60
45137;DHT22;30894;51.740;19.498;2022-10-15T02:16:58;11.00;93.80
45137;DHT22;30894;51.740;19.498;2022-10-15T02:19:54;11.00;93.90
45137;DHT22;30894;51.740;19.498;2022-10-15T02:22:24;11.10;94.10
45137;DHT22;30894;51.740;19.498;2022-10-15T02:24:57;11.00;94.10
45137;DHT22;30894;51.740;19.498;2022-10-15T02:27:30;11.00;94.20
45137;DHT22;30894;51.740;19.498;2022-10-15T02:30:01;11.00;94.30
45137;DHT22;30894;51.740;19.498;2022-10-15T02:32:30;11.00;94.40
45137;DHT22;30894;51.740;19.498;2022-10-15T02:34:57;11.00;94.50
45137;DHT22;30894;51.740;19.498;2022-10-15T02:37:25;11.00;94.50
45137;DHT22;30894;51.740;19.498;2022-10-15T02:39:52;11.00;94.60
45137;DHT22;30894;51.740;19.498;2022-10-15T02:42:18;11.10;94.70
45137;DHT22;30894;51.740;19.498;2022-10-15T02:44:45;11.10;94.70
45137;DHT22;30894;51.740;19.498;2022-10-15T02:47:11;11.00;94.80
45137;DHT22;30894;51.740;19.498;2022-10-15T02:49:37;11.00;95.00
45137;DHT22;30894;51.740;19.498;2022-10-15T02:52:03;11.00;95.00
45137;DHT22;30894;51.740;19.498;2022-10-15T02:54:30;11.00;95.10
45137;DHT22;30894;51.740;19.498;2022-10-15T02:56:56;11.00;95.10
45137;DHT22;30894;51.740;19.498;2022-10-15T02:59:22;10.90;95.20
45137;DHT22;30894;51.740;19.498;2022-10-15T03:01:48;10.80;95.40
45137;DHT22;30894;51.740;19.498;2022-10-15T03:04:14;10.70;95.70
45137;DHT22;30894;51.740;19.498;2022-10-15T03:06:40;10.60;96.00
45137;DHT22;30894;51.740;19.498;2022-10-15T03:09:06;10.40;96.30
45137;DHT22;30894;51.740;19.498;2022-10-15T03:11:32;10.40;96.70
45137;DHT22;30894;51.740;19.498;2022-10-15T03:13:59;10.30;97.00
45137;DHT22;30894;51.740;19.498;2022-10-15T03:16:25;10.20;97.30
45137;DHT22;30894;51.740;19.498;2022-10-15T03:18:51;10.10;97.60
45137;DHT22;30894;51.740;19.498;2022-10-15T03:21:17;10.00;97.80
45137;DHT22;30894;51.740;19.498;2022-10-15T03:23:43;10.00;98.00
45137;DHT22;30894;51.740;19.498;2022-10-15T03:26:09;9.90;98.10
45137;DHT22;30894;51.740;19.498;2022-10-15T03:28:35;9.90;98.20
45137;DHT22;30894;51.740;19.498;2022-10-15T03:31:01;9.80;98.30
45137;DHT22;30894;51.740;19.498;2022-10-15T03:33:27;9.70;98.40
45137;DHT22;30894;51.740;19.498;2022-10-15T03:35:53;9.70;98.60
45137;DHT22;30894;51.740;19.498;2022-10-15T03:38:19;9.60;98.80
45137;DHT22;30894;51.740;19.498;2022-10-15T03:40:45;9.50;99.00
45137;DHT22;30894;51.740;19.498;2022-10-15T03:43:11;9.50;99.20
45137;DHT22;30894;51.740;19.498;2022-10-15T03:45:37;9.50;99.40
45137;DHT22;30894;51.740;19.498;2022-10-15T03:48:03;9.40;99.50
45137;DHT22;30894;51.740;19.498;2022-10-15T03:50:29;9.30;99.60
45137;DHT22;30894;51.740;19.498;2022-10-15T03:52:56;9.30;99.80
45137;DHT22;30894;51.740;19.498;2022-10-15T03:55:21;9.30;99.90
45137;DHT22;30894;51.740;19.498;2022-10-15T03:57:47;9.20;99.90
45137;DHT22;30894;51.740;19.498;2022-10-15T04:00:14;9.20;99.90
45137;DHT22;30894;51.740;19.498;2022-10-15T04:02:40;9.10;99.90
45137;DHT22;30894;51.740;19.498;2022-10-15T04:05:06;9.10;99.90
45137;DHT22;30894;51.740;19.498;2022-10-15T04:07:32;9.00;99.90
45137;DHT22;30894;51.740;19.498;2022-10-15T04:09:58;9.00;99.90
45137;DHT22;30894;51.740;19.498;2022-10-15T04:12:24;9.00;99.90
45137;DHT22;30894;51.740;19.498;2022-10-15T04:14:50;9.00;99.90
45137;DHT22;30894;51.740;19.498;2022-10-15T04:17:16;9.00;99.90
45137;DHT22;30894;51.740;19.498;2022-10-15T04:19:42;8.90;99.90
45137;DHT22;30894;51.740;19.498;2022-10-15T04:22:08;8.90;99.90
45137;DHT22;30894;51.740;19.498;2022-10-15T04:24:34;8.90;99.90
45137;DHT22;30894;51.740;19.498;2022-10-15T04:27:00;8.90;99.90
45137;DHT22;30894;51.740;19.498;2022-10-15T04:29:26;8.90;99.90
45137;DHT22;30894;51.740;19.498;2022-10-15T04:31:52;8.80;99.90
45137;DHT22;30894;51.740;19.498;2022-10-15T04:34:18;8.80;99.90
45137;DHT22;30894;51.740;19.498;2022-10-15T04:36:44;8.80;99.90
45137;DHT22;30894;51.740;19.498;2022-10-15T04:39:10;8.80;99.90
45137;DHT22;30894;51.740;19.498;2022-10-15T04:41:36;8.70;99.90
45137;DHT22;30894;51.740;19.498;2022-10-15T04:44:02;8.70;99.90
45137;DHT22;30894;51.740;19.498;2022-10-15T04:46:28;8.70;99.90
45137;DHT22;30894;51.740;19.498;2022-10-15T04:48:54;8.70;99.90
45137;DHT22;30894;51.740;19.498;2022-10-15T04:51:23;8.60;99.90
45137;DHT22;30894;51.740;19.498;2022-10-15T04:53:50;8.60;99.90
45137;DHT22;30894;51.740;19.498;2022-10-15T04:56:18;8.60;99.90
45137;DHT22;30894;51.740;19.498;2022-10-15T04:58:46;8.60;99.90
45137;DHT22;30894;51.740;19.498;2022-10-15T05:01:16;8.50;99.90
45137;DHT22;30894;51.740;19.498;2022-10-15T05:03:45;8.50;99.90
45137;DHT22;30894;51.740;19.498;2022-10-15T05:06:19;8.60;99.90
45137;DHT22;30894;51.740;19.498;2022-10-15T05:08:47;8.60;99.90
45137;DHT22;30894;51.740;19.498;2022-10-15T05:11:20;8.50;99.90
45137;DHT22;30894;51.740;19.498;2022-10-15T05:13:48;8.60;99.90
45137;DHT22;30894;51.740;19.498;2022-10-15T05:16:19;8.60;99.90
45137;DHT22;30894;51.740;19.498;2022-10-15T05:18:53;8.60;99.90
45137;DHT22;30894;51.740;19.498;2022-10-15T05:21:24;8.60;99.90
45137;DHT22;30894;51.740;19.498;2022-10-15T05:23:51;8.60;99.90
45137;DHT22;30894;51.740;19.498;2022-10-15T05:26:22;8.60;99.90
45137;DHT22;30894;51.740;19.498;2022-10-15T05:28:57;8.60;99.90
45137;DHT22;30894;51.740;19.498;2022-10-15T05:31:29;8.70;99.90
45137;DHT22;30894;51.740;19.498;2022-10-15T05:33:56;8.70;99.90
45137;DHT22;30894;51.740;19.498;2022-10-15T05:36:26;8.70;99.90
45137;DHT22;30894;51.740;19.498;2022-10-15T05:38:56;8.80;99.90
45137;DHT22;30894;51.740;19.498;2022-10-15T05:41:23;8.90;99.90
45137;DHT22;30894;51.740;19.498;2022-10-15T05:43:54;9.00;99.90
45137;DHT22;30894;51.740;19.498;2022-10-15T05:46:21;9.10;99.90
45137;DHT22;30894;51.740;19.498;2022-10-15T05:48:53;9.20;99.90
45137;DHT22;30894;51.740;19.498;2022-10-15T05:51:21;9.30;99.90
45137;DHT22;30894;51.740;19.498;2022-10-15T05:53:53;9.50;99.90
45137;DHT22;30894;51.740;19.498;2022-10-15T05:56:21;9.60;99.90
45137;DHT22;30894;51.740;19.498;2022-10-15T05:58:47;9.80;99.90
45137;DHT22;30894;51.740;19.498;2022-10-15T06:01:14;9.90;99.80
45137;DHT22;30894;51.740;19.498;2022-10-15T06:03:41;10.10;99.50
45137;DHT22;30894;51.740;19.498;2022-10-15T06:06:28;10.30;99.10
45137;DHT22;30894;51.740;19.498;2022-10-15T06:08:54;10.50;98.60
45137;DHT22;30894;51.740;19.498;2022-10-15T06:11:21;10.60;98.40
45137;DHT22;30894;51.740;19.498;2022-10-15T06:13:47;10.80;98.00
45137;DHT22;30894;51.740;19.498;2022-10-15T06:16:14;11.10;97.70
45137;DHT22;30894;51.740;19.498;2022-10-15T06:18:41;11.20;97.30
45137;DHT22;30894;51.740;19.498;2022-10-15T06:21:10;11.30;97.00
45137;DHT22;30894;51.740;19.498;2022-10-15T06:23:37;11.50;96.70
45137;DHT22;30894;51.740;19.498;2022-10-15T06:26:05;11.60;96.50
45137;DHT22;30894;51.740;19.498;2022-10-15T06:28:34;11.70;96.20
45137;DHT22;30894;51.740;19.498;2022-10-15T06:31:01;11.90;95.90
45137;DHT22;30894;51.740;19.498;2022-10-15T06:33:27;11.90;95.90
45137;DHT22;30894;51.740;19.498;2022-10-15T06:35:54;11.80;96.10
45137;DHT22;30894;51.740;19.498;2022-10-15T06:38:20;11.70;96.30
45137;DHT22;30894;51.740;19.498;2022-10-15T06:40:46;11.70;96.60
45137;DHT22;30894;51.740;19.498;2022-10-15T06:43:13;11.60;96.90
45137;DHT22;30894;51.740;19.498;2022-10-15T06:45:40;11.60;97.20
45137;DHT22;30894;51.740;19.498;2022-10-15T06:48:07;11.70;97.50
45137;DHT22;30894;51.740;19.498;2022-10-15T06:50:35;11.70;97.30
45137;DHT22;30894;51.740;19.498;2022-10-15T06:53:02;11.70;97.30
45137;DHT22;30894;51.740;19.498;2022-10-15T06:55:29;11.60;97.50
45137;DHT22;30894;51.740;19.498;2022-10-15T06:57:55;11.70;97.60
45137;DHT22;30894;51.740;19.498;2022-10-15T07:00:23;11.90;97.60
45137;DHT22;30894;51.740;19.498;2022-10-15T07:02:49;12.00;97.20
45137;DHT22;30894;51.740;19.498;2022-10-15T07:05:16;12.10;96.90
45137;DHT22;30894;51.740;19.498;2022-10-15T07:07:50;12.20;97.00
45137;DHT22;30894;51.740;19.498;2022-10-15T07:10:17;12.50;96.60
45137;DHT22;30894;51.740;19.498;2022-10-15T07:12:43;12.70;95.70
45137;DHT22;30894;51.740;19.498;2022-10-15T07:15:09;12.90;95.30
45137;DHT22;30894;51.740;19.498;2022-10-15T07:17:35;13.20;94.90
45137;DHT22;30894;51.740;19.498;2022-10-15T07:20:04;13.60;94.10
45137;DHT22;30894;51.740;19.498;2022-10-15T07:22:31;13.90;93.30
45137;DHT22;30894;51.740;19.498;2022-10-15T07:24:58;14.10;92.70
45137;DHT22;30894;51.740;19.498;2022-10-15T07:27:24;14.40;92.20
45137;DHT22;30894;51.740;19.498;2022-10-15T07:29:50;14.70;91.60
45137;DHT22;30894;51.740;19.498;2022-10-15T07:32:16;14.60;91.40
45137;DHT22;30894;51.740;19.498;2022-10-15T07:34:42;14.70;91.30
45137;DHT22;30894;51.740;19.498;2022-10-15T07:37:08;14.90;91.20
45137;DHT22;30894;51.740;19.498;2022-10-15T07:39:34;15.00;91.10
45137;DHT22;30894;51.740;19.498;2022-10-15T07:42:00;15.10;91.00
45137;DHT22;30894;51.740;19.498;2022-10-15T07:44:26;15.50;90.60
45137;DHT22;30894;51.740;19.498;2022-10-15T07:46:52;15.60;90.20
45137;DHT22;30894;51.740;19.498;2022-10-15T07:49:18;15.60;90.10
45137;DHT22;30894;51.740;19.498;2022-10-15T07:51:48;15.70;90.20
45137;DHT22;30894;51.740;19.498;2022-10-15T07:54:15;15.90;89.70
45137;DHT22;30894;51.740;19.498;2022-10-15T07:56:41;16.20;88.80
45137;DHT22;30894;51.740;19.498;2022-10-15T07:59:08;16.50;88.00
45137;DHT22;30894;51.740;19.498;2022-10-15T08:01:34;16.60;87.50
45137;DHT22;30894;51.740;19.498;2022-10-15T08:04:00;17.00;86.90
45137;DHT22;30894;51.740;19.498;2022-10-15T08:06:26;17.40;85.10
45137;DHT22;30894;51.740;19.498;2022-10-15T08:08:52;17.70;84.10
45137;DHT22;30894;51.740;19.498;2022-10-15T08:11:18;17.70;83.60
45137;DHT22;30894;51.740;19.498;2022-10-15T08:13:44;17.50;83.70
45137;DHT22;30894;51.740;19.498;2022-10-15T08:16:13;17.40;84.00
45137;DHT22;30894;51.740;19.498;2022-10-15T08:18:40;17.30;84.30
45137;DHT22;30894;51.740;19.498;2022-10-15T08:21:06;17.20;84.60
45137;DHT22;30894;51.740;19.498;2022-10-15T08:23:34;17.20;84.80
45137;DHT22;30894;51.740;19.498;2022-10-15T08:26:01;17.10;85.10
45137;DHT22;30894;51.740;19.498;2022-10-15T08:28:29;17.00;85.20
45137;DHT22;30894;51.740;19.498;2022-10-15T08:31:00;17.10;85.30
45137;DHT22;30894;51.740;19.498;2022-10-15T08:33:28;17.10;85.50
45137;DHT22;30894;51.740;19.498;2022-10-15T08:36:04;17.10;85.60
45137;DHT22;30894;51.740;19.498;2022-10-15T08:38:31;17.10;85.60
45137;DHT22;30894;51.740;19.498;2022-10-15T08:41:00;17.20;85.60
45137;DHT22;30894;51.740;19.498;2022-10-15T08:46:10;17.50;85.00
45137;DHT22;30894;51.740;19.498;2022-10-15T08:48:43;17.60;84.50
45137;DHT22;30894;51.740;19.498;2022-10-15T08:51:24;17.80;84.30
45137;DHT22;30894;51.740;19.498;2022-10-15T08:54:03;18.00;83.60
45137;DHT22;30894;51.740;19.498;2022-10-15T08:56:35;18.40;82.90
45137;DHT22;30894;51.740;19.498;2022-10-15T09:02:01;18.90;81.50
45137;DHT22;30894;51.740;19.498;2022-10-15T09:04:31;19.00;80.90
45137;DHT22;30894;51.740;19.498;2022-10-15T09:07:12;19.00;80.70
45137;DHT22;30894;51.740;19.498;2022-10-15T09:09:51;19.10;80.70
45137;DHT22;30894;51.740;19.498;2022-10-15T09:13:30;19.00;80.80
45137;DHT22;30894;51.740;19.498;2022-10-15T09:15:32;18.90;81.10
45137;DHT22;30894;51.740;19.498;2022-10-15T09:18:02;18.90;81.40
45137;DHT22;30894;51.740;19.498;2022-10-15T09:20:34;18.80;81.70
45137;DHT22;30894;51.740;19.498;2022-10-15T09:23:01;18.80;81.80
45137;DHT22;30894;51.740;19.498;2022-10-15T09:25:34;19.10;81.60
45137;DHT22;30894;51.740;19.498;2022-10-15T09:28:13;19.60;80.40
45137;DHT22;30894;51.740;19.498;2022-10-15T09:30:51;20.40;78.80
45137;DHT22;30894;51.740;19.498;2022-10-15T09:42:33;22.00;74.10
45137;DHT22;30894;51.740;19.498;2022-10-15T09:45:13;22.80;72.10
45137;DHT22;30894;51.740;19.498;2022-10-15T09:47:41;23.40;70.90
45137;DHT22;30894;51.740;19.498;2022-10-15T09:50:12;24.00;69.70
45137;DHT22;30894;51.740;19.498;2022-10-15T09:55:55;23.60;69.40
45137;DHT22;30894;51.740;19.498;2022-10-15T09:58:55;23.10;70.60
45137;DHT22;30894;51.740;19.498;2022-10-15T10:01:27;22.80;71.70
45137;DHT22;30894;51.740;19.498;2022-10-15T10:04:19;23.00;71.60
45137;DHT22;30894;51.740;19.498;2022-10-15T10:09:36;23.10;71.30
45137;DHT22;30894;51.740;19.498;2022-10-15T10:12:06;23.30;71.30
45137;DHT22;30894;51.740;19.498;2022-10-15T10:14:59;23.80;70.10
45137;DHT22;30894;51.740;19.498;2022-10-15T10:17:30;24.10;69.20
45137;DHT22;30894;51.740;19.498;2022-10-15T10:22:48;23.50;70.00
45137;DHT22;30894;51.740;19.498;2022-10-15T10:33:40;22.70;72.20
45137;DHT22;30894;51.740;19.498;2022-10-15T10:36:29;22.70;71.90
45137;DHT22;30894;51.740;19.498;2022-10-15T10:42:12;22.20;72.80
45137;DHT22;30894;51.740;19.498;2022-10-15T10:44:53;21.90;73.30
45137;DHT22;30894;51.740;19.498;2022-10-15T10:47:21;21.60;74.10
45137;DHT22;30894;51.740;19.498;2022-10-15T10:49:56;21.30;74.70
45137;DHT22;30894;51.740;19.498;2022-10-15T10:55:01;20.70;76.00
45137;DHT22;30894;51.740;19.498;2022-10-15T10:57:49;20.50;76.50
45137;DHT22;30894;51.740;19.498;2022-10-15T11:00:38;20.30;76.90
45137;DHT22;30894;51.740;19.498;2022-10-15T11:03:19;20.00;77.20
45137;DHT22;30894;51.740;19.498;2022-10-15T11:05:58;19.80;77.60
45137;DHT22;30894;51.740;19.498;2022-10-15T11:11:36;19.70;78.10
45137;DHT22;30894;51.740;19.498;2022-10-15T11:19:39;18.70;80.50
45137;DHT22;30894;51.740;19.498;2022-10-15T11:22:31;18.60;81.10
45137;DHT22;30894;51.740;19.498;2022-10-15T11:28:18;19.50;79.70
45137;DHT22;30894;51.740;19.498;2022-10-15T11:31:40;20.00;78.10
45137;DHT22;30894;51.740;19.498;2022-10-15T11:56:36;18.90;79.50
45137;DHT22;30894;51.740;19.498;2022-10-15T12:01:56;17.70;82.40
45137;DHT22;30894;51.740;19.498;2022-10-15T12:04:55;17.50;83.40
45137;DHT22;30894;51.740;19.498;2022-10-15T12:07:40;17.40;84.00
45137;DHT22;30894;51.740;19.498;2022-10-15T12:12:48;17.40;84.10
45137;DHT22;30894;51.740;19.498;2022-10-15T12:18:32;17.60;83.50
45137;DHT22;30894;51.740;19.498;2022-10-15T12:21:03;17.70;83.30
45137;DHT22;30894;51.740;19.498;2022-10-15T12:24:48;17.80;83.10
45137;DHT22;30894;51.740;19.498;2022-10-15T12:27:25;17.80;83.00
45137;DHT22;30894;51.740;19.498;2022-10-15T12:35:45;17.80;82.80
45137;DHT22;30894;51.740;19.498;2022-10-15T12:43:37;18.00;82.10
45137;DHT22;30894;51.740;19.498;2022-10-15T12:46:10;18.00;82.50
45137;DHT22;30894;51.740;19.498;2022-10-15T12:53:45;18.00;82.70
45137;DHT22;30894;51.740;19.498;2022-10-15T13:03:53;17.30;84.70
45137;DHT22;30894;51.740;19.498;2022-10-15T13:06:29;17.30;85.20
45137;DHT22;30894;51.740;19.498;2022-10-15T13:09:13;17.10;85.40
45137;DHT22;30894;51.740;19.498;2022-10-15T13:11:48;17.00;85.80
45137;DHT22;30894;51.740;19.498;2022-10-15T13:14:37;17.00;86.10
45137;DHT22;30894;51.740;19.498;2022-10-15T13:17:29;17.00;86.20
45137;DHT22;30894;51.740;19.498;2022-10-15T13:22:31;17.10;85.80
45137;DHT22;30894;51.740;19.498;2022-10-15T13:24:59;17.20;86.00
45137;DHT22;30894;51.740;19.498;2022-10-15T13:27:30;17.20;85.90
45137;DHT22;30894;51.740;19.498;2022-10-15T13:30:01;17.20;86.00
45137;DHT22;30894;51.740;19.498;2022-10-15T13:32:55;17.20;86.10
45137;DHT22;30894;51.740;19.498;2022-10-15T13:35:27;17.20;86.40
45137;DHT22;30894;51.740;19.498;2022-10-15T13:37:56;17.10;86.60
45137;DHT22;30894;51.740;19.498;2022-10-15T13:40:25;17.20;86.70
45137;DHT22;30894;51.740;19.498;2022-10-15T13:43:12;17.10;87.00
45137;DHT22;30894;51.740;19.498;2022-10-15T13:46:09;17.00;87.50
45137;DHT22;30894;51.740;19.498;2022-10-15T13:48:40;16.90;88.30
45137;DHT22;30894;51.740;19.498;2022-10-15T13:51:09;16.80;88.80
45137;DHT22;30894;51.740;19.498;2022-10-15T13:53:41;16.80;89.30
45137;DHT22;30894;51.740;19.498;2022-10-15T13:56:28;16.90;89.50
45137;DHT22;30894;51.740;19.498;2022-10-15T13:58:59;17.10;89.30
45137;DHT22;30894;51.740;19.498;2022-10-15T14:01:28;17.30;88.90
45137;DHT22;30894;51.740;19.498;2022-10-15T14:04:00;17.60;88.20
45137;DHT22;30894;51.740;19.498;2022-10-15T14:06:32;17.90;87.20
45137;DHT22;30894;51.740;19.498;2022-10-15T14:09:12;18.10;86.20
45137;DHT22;30894;51.740;19.498;2022-10-15T14:11:52;18.20;85.40
45137;DHT22;30894;51.740;19.498;2022-10-15T14:17:03;18.40;84.20
45137;DHT22;30894;51.740;19.498;2022-10-15T14:19:35;18.60;83.70
45137;DHT22;30894;51.740;19.498;2022-10-15T14:22:03;18.70;83.30
45137;DHT22;30894;51.740;19.498;2022-10-15T14:27:06;18.80;82.80
45137;DHT22;30894;51.740;19.498;2022-10-15T14:29:46;18.80;82.60
45137;DHT22;30894;51.740;19.498;2022-10-15T14:32:24;18.80;82.50
45137;DHT22;30894;51.740;19.498;2022-10-15T14:35:02;18.80;82.40
45137;DHT22;30894;51.740;19.498;2022-10-15T14:42:37;18.50;83.00
45137;DHT22;30894;51.740;19.498;2022-10-15T14:45:24;18.40;83.30
45137;DHT22;30894;51.740;19.498;2022-10-15T14:47:59;18.30;83.60
45137;DHT22;30894;51.740;19.498;2022-10-15T14:50:33;18.20;84.50
45137;DHT22;30894;51.740;19.498;2022-10-15T14:53:17;18.10;84.00
45137;DHT22;30894;51.740;19.498;2022-10-15T14:56:03;18.00;84.20
45137;DHT22;30894;51.740;19.498;2022-10-15T14:58:53;18.00;84.40
45137;DHT22;30894;51.740;19.498;2022-10-15T15:01:25;17.90;84.50
45137;DHT22;30894;51.740;19.498;2022-10-15T15:03:54;17.80;84.60
45137;DHT22;30894;51.740;19.498;2022-10-15T15:06:21;17.80;84.70
45137;DHT22;30894;51.740;19.498;2022-10-15T15:08:55;17.70;84.90
45137;DHT22;30894;51.740;19.498;2022-10-15T15:11:21;17.70;85.00
45137;DHT22;30894;51.740;19.498;2022-10-15T15:13:49;17.60;85.00
45137;DHT22;30894;51.740;19.498;2022-10-15T15:16:18;17.60;85.30
45137;DHT22;30894;51.740;19.498;2022-10-15T15:18:44;17.50;85.40
45137;DHT22;30894;51.740;19.498;2022-10-15T15:21:16;17.40;85.50
45137;DHT22;30894;51.740;19.498;2022-10-15T15:23:45;17.40;85.70
45137;DHT22;30894;51.740;19.498;2022-10-15T15:26:14;17.30;85.90
45137;DHT22;30894;51.740;19.498;2022-10-15T15:28:40;17.20;86.20
45137;DHT22;30894;51.740;19.498;2022-10-15T15:31:16;17.10;86.30
45137;DHT22;30894;51.740;19.498;2022-10-15T15:33:43;17.10;87.10
45137;DHT22;30894;51.740;19.498;2022-10-15T15:36:23;17.00;86.70
45137;DHT22;30894;51.740;19.498;2022-10-15T15:38:51;17.00;86.80
45137;DHT22;30894;51.740;19.498;2022-10-15T15:41:23;17.00;87.50
45137;DHT22;30894;51.740;19.498;2022-10-15T15:43:51;17.00;86.90
45137;DHT22;30894;51.740;19.498;2022-10-15T15:46:26;16.90;87.00
45137;DHT22;30894;51.740;19.498;2022-10-15T15:49:00;16.80;87.10
45137;DHT22;30894;51.740;19.498;2022-10-15T15:51:31;16.70;87.50
45137;DHT22;30894;51.740;19.498;2022-10-15T15:54:00;16.60;87.90
45137;DHT22;30894;51.740;19.498;2022-10-15T15:56:32;16.40;88.20
45137;DHT22;30894;51.740;19.498;2022-10-15T15:59:01;16.30;88.70
45137;DHT22;30894;51.740;19.498;2022-10-15T16:01:37;16.10;89.10
45137;DHT22;30894;51.740;19.498;2022-10-15T16:04:06;16.00;90.10
45137;DHT22;30894;51.740;19.498;2022-10-15T16:06:34;15.90;90.00
45137;DHT22;30894;51.740;19.498;2022-10-15T16:09:10;15.70;90.20
45137;DHT22;30894;51.740;19.498;2022-10-15T16:11:37;15.60;90.40
45137;DHT22;30894;51.740;19.498;2022-10-15T16:14:06;15.60;90.50
45137;DHT22;30894;51.740;19.498;2022-10-15T16:16:42;15.50;90.70
45137;DHT22;30894;51.740;19.498;2022-10-15T16:19:10;15.40;90.90
45137;DHT22;30894;51.740;19.498;2022-10-15T16:21:46;15.40;91.00
45137;DHT22;30894;51.740;19.498;2022-10-15T16:24:14;15.30;91.10
45137;DHT22;30894;51.740;19.498;2022-10-15T16:26:50;15.30;91.20
45137;DHT22;30894;51.740;19.498;2022-10-15T16:29:27;15.20;91.30
45137;DHT22;30894;51.740;19.498;2022-10-15T16:31:53;15.20;91.40
45137;DHT22;30894;51.740;19.498;2022-10-15T16:34:23;15.20;91.50
45137;DHT22;30894;51.740;19.498;2022-10-15T16:36:53;15.20;91.50
45137;DHT22;30894;51.740;19.498;2022-10-15T16:39:19;15.20;91.60
45137;DHT22;30894;51.740;19.498;2022-10-15T16:41:56;15.20;91.60
45137;DHT22;30894;51.740;19.498;2022-10-15T16:44:27;15.20;91.60
45137;DHT22;30894;51.740;19.498;2022-10-15T16:46:53;15.20;91.70
45137;DHT22;30894;51.740;19.498;2022-10-15T16:49:31;15.20;91.70
45137;DHT22;30894;51.740;19.498;2022-10-15T16:52:02;15.20;91.70
45137;DHT22;30894;51.740;19.498;2022-10-15T16:54:35;15.20;91.80
45137;DHT22;30894;51.740;19.498;2022-10-15T16:57:09;15.10;91.80
45137;DHT22;30894;51.740;19.498;2022-10-15T16:59:37;15.10;91.80
45137;DHT22;30894;51.740;19.498;2022-10-15T17:02:08;15.10;91.80
45137;DHT22;30894;51.740;19.498;2022-10-15T17:04:34;15.10;91.90
45137;DHT22;30894;51.740;19.498;2022-10-15T17:07:13;15.10;91.90
45137;DHT22;30894;51.740;19.498;2022-10-15T17:09:46;15.10;92.20
45137;DHT22;30894;51.740;19.498;2022-10-15T17:12:29;15.10;91.90
45137;DHT22;30894;51.740;19.498;2022-10-15T17:14:57;15.10;91.90
45137;DHT22;30894;51.740;19.498;2022-10-15T17:17:26;15.00;92.00
45137;DHT22;30894;51.740;19.498;2022-10-15T17:20:02;15.00;92.10
45137;DHT22;30894;51.740;19.498;2022-10-15T17:22:36;14.90;92.10
45137;DHT22;30894;51.740;19.498;2022-10-15T17:25:03;14.90;92.20
45137;DHT22;30894;51.740;19.498;2022-10-15T17:27:31;14.90;92.30
45137;DHT22;30894;51.740;19.498;2022-10-15T17:30:10;14.90;92.30
45137;DHT22;30894;51.740;19.498;2022-10-15T17:32:36;15.00;92.20
45137;DHT22;30894;51.740;19.498;2022-10-15T17:35:04;15.10;92.10
45137;DHT22;30894;51.740;19.498;2022-10-15T17:37:43;15.20;91.90
45137;DHT22;30894;51.740;19.498;2022-10-15T17:40:12;15.30;91.60
45137;DHT22;30894;51.740;19.498;2022-10-15T17:42:46;15.40;91.40
45137;DHT22;30894;51.740;19.498;2022-10-15T17:45:17;15.50;91.20
45137;DHT22;30894;51.740;19.498;2022-10-15T17:47:51;15.60;91.00
45137;DHT22;30894;51.740;19.498;2022-10-15T17:50:20;15.60;90.90
45137;DHT22;30894;51.740;19.498;2022-10-15T17:52:53;15.70;90.70
45137;DHT22;30894;51.740;19.498;2022-10-15T17:55:21;15.70;90.60
45137;DHT22;30894;51.740;19.498;2022-10-15T17:57:50;15.80;90.60
45137;DHT22;30894;51.740;19.498;2022-10-15T18:00:27;15.80;90.50
45137;DHT22;30894;51.740;19.498;2022-10-15T18:02:57;15.90;90.40
45137;DHT22;30894;51.740;19.498;2022-10-15T18:05:32;15.80;90.30
45137;DHT22;30894;51.740;19.498;2022-10-15T18:08:18;15.90;90.30
45137;DHT22;30894;51.740;19.498;2022-10-15T18:10:49;15.90;90.20